< Typhoon 197611 1976 Season Typhoon 197613 >
Typhoon 197612 (ANITA)
General InformationTrack Information on Google Maps || Disaster Info.ResourceGoogle EarthGE AnimationAtom FeedGeoJSON
Detalied Best Track (Time Zone = UTC)
Year Month Day Hour Lat. Long. Pressure (hPa) Wind (kt) Class Image Chart
1976 7 21 12 14.7 131.1 1004 0 2 -- Chart
1976 7 21 18 14.8 130.5 1004 0 2 -- Chart
1976 7 22 00 15.3 129.5 1002 0 2 -- Chart
1976 7 22 06 16.3 130.0 1000 0 2 -- Chart
1976 7 22 12 17.0 131.0 996 0 2 -- Chart
1976 7 22 18 18.0 132.0 996 0 2 -- Chart
1976 7 23 00 18.8 132.7 994 0 2 -- Chart
1976 7 23 06 20.5 133.0 980 0 9 -- Chart
1976 7 23 12 22.7 132.9 980 0 9 -- Chart
1976 7 23 18 24.7 132.8 980 0 9 -- Chart
1976 7 24 00 26.7 132.7 985 0 9 -- Chart
1976 7 24 06 29.1 132.2 990 0 9 -- Chart
1976 7 24 12 30.8 131.7 990 0 9 -- Chart
1976 7 24 18 32.1 130.8 992 0 9 -- Chart
1976 7 25 00 33.4 129.9 998 0 2 -- Chart
1976 7 25 06 34.7 129.5 1000 0 2 -- Chart
1976 7 25 12 36.0 130.0 1004 0 2 -- Chart
1976 7 25 18 37.3 130.3 1006 0 2 -- Chart
1976 7 26 00 39.1 131.0 1006 0 2 -- Chart
1976 7 26 06 40.0 133.0 1006 0 2 -- Chart
1976 7 26 12 41.0 135.0 1008 0 2 -- Chart
1976 7 26 18 43.0 137.0 1008 0 2 -- Chart
1976 7 27 00 46.0 140.0 1008 0 2 -- Chart
Japan Meteorological Agency Best Track Data | Correction Date : 1992-10-21
< Typhoon 197611 1976 Season Typhoon 197613 >

Help